Willamar, Texas
Current Conditions -  °F | °C
As of 7:15 AM on Wednesday 22 Oct 2014 (Local Time) from KEBG Reporting Station
Clear Clear  
Wind Chill: 69°   Ceiling: Unl
Heat Index: 69°   Visibility: 7mi
Dew Point: 67°   Wind: 0mph
Humidity: 91%   Direction: NA
Pressure: 29.98"   Gusts: NA
Location:  26.5112°N, 97.8502°W
Report Text: KEBG 221215Z AUTO 00000KT 7SM CLR 21/19 A2998 RMK AO2 LTG DSNT SE T02080193
Loading
Personal Weather Stations






























Interactive Weather Map
Tropical Storm Tracking
New forecast layout! Learn more

10-Day Weather Forecast

Advertisements
Track Severe Weather on mobile